Grant, Alabama
Current Conditions -  °F | °C
As of 8:35 PM on Sunday 23 Nov 2014 (Local Time) from K4A6 Reporting Station
Overcast Overcast  
Wind Chill: 63°   Ceiling: 4400
Heat Index: 63°   Visibility: 10mi
Dew Point: 57°   Wind: 9mph
Humidity: 82%   Direction: 210°SSW
Pressure: 29.6"   Gusts: 17mph
Location:  34.53°N, 86.25°W
Report Text: K4A6 240235Z AUTO 21008G15KT 180V240 10SM FEW028 BKN044 OVC065 17/14 A2960 RMK AO2
Loading
Personal Weather Stations






























Interactive Weather Map New forecast layout! Learn more

10-Day Weather Forecast

Advertisements
Track Severe Weather on mobile